sensor_id;sensor_type;location;lat;lon;timestamp;temperature;humidity
73875;HTU21D;62209;47.568;7.558;2023-04-03T00:09:23;6.27;103.94
73875;HTU21D;62209;47.568;7.558;2023-04-03T00:24:34;6.16;103.44
73875;HTU21D;62209;47.568;7.558;2023-04-03T00:39:43;5.85;103.15
73875;HTU21D;62209;47.568;7.558;2023-04-03T00:54:50;5.79;102.20
73875;HTU21D;62209;47.568;7.558;2023-04-03T01:09:59;5.46;102.44
73875;HTU21D;62209;47.568;7.558;2023-04-03T01:25:07;5.36;101.57
73875;HTU21D;62209;47.568;7.558;2023-04-03T01:40:12;5.03;102.63
73875;HTU21D;62209;47.568;7.558;2023-04-03T01:55:18;4.86;103.37
73875;HTU21D;62209;47.568;7.558;2023-04-03T02:10:24;4.87;103.02
73875;HTU21D;62209;47.568;7.558;2023-04-03T02:25:31;4.71;102.92
73875;HTU21D;62209;47.568;7.558;2023-04-03T02:40:41;4.54;103.09
73875;HTU21D;62209;47.568;7.558;2023-04-03T02:55:47;4.31;103.73
73875;HTU21D;62209;47.568;7.558;2023-04-03T03:10:56;4.30;104.05
73875;HTU21D;62209;47.568;7.558;2023-04-03T03:26:02;4.29;102.98
73875;HTU21D;62209;47.568;7.558;2023-04-03T03:41:15;4.34;102.28
73875;HTU21D;62209;47.568;7.558;2023-04-03T03:56:24;4.27;101.83
73875;HTU21D;62209;47.568;7.558;2023-04-03T04:11:33;4.28;101.68
73875;HTU21D;62209;47.568;7.558;2023-04-03T04:26:40;4.27;101.42
73875;HTU21D;62209;47.568;7.558;2023-04-03T04:41:46;4.30;101.32
73875;HTU21D;62209;47.568;7.558;2023-04-03T04:56:54;4.19;100.95
73875;HTU21D;62209;47.568;7.558;2023-04-03T05:12:02;4.18;101.48
73875;HTU21D;62209;47.568;7.558;2023-04-03T05:27:08;4.07;101.43
73875;HTU21D;62209;47.568;7.558;2023-04-03T05:42:14;3.85;102.44
73875;HTU21D;62209;47.568;7.558;2023-04-03T05:57:20;3.92;103.07
73875;HTU21D;62209;47.568;7.558;2023-04-03T06:12:26;4.02;103.01
73875;HTU21D;62209;47.568;7.558;2023-04-03T06:27:33;3.95;103.55
73875;HTU21D;62209;47.568;7.558;2023-04-03T06:42:39;4.15;103.99
73875;HTU21D;62209;47.568;7.558;2023-04-03T06:57:45;4.06;104.88
73875;HTU21D;62209;47.568;7.558;2023-04-03T07:12:51;4.17;105.02
73875;HTU21D;62209;47.568;7.558;2023-04-03T07:27:57;4.15;105.15
73875;HTU21D;62209;47.568;7.558;2023-04-03T07:43:03;4.35;105.02
73875;HTU21D;62209;47.568;7.558;2023-04-03T07:58:09;4.29;105.21
73875;HTU21D;62209;47.568;7.558;2023-04-03T08:13:18;4.77;106.34
73875;HTU21D;62209;47.568;7.558;2023-04-03T08:28:24;5.25;98.88
73875;HTU21D;62209;47.568;7.558;2023-04-03T08:43:33;5.33;101.98
73875;HTU21D;62209;47.568;7.558;2023-04-03T08:58:46;5.40;102.26
73875;HTU21D;62209;47.568;7.558;2023-04-03T09:14:32;6.01;100.86
73875;HTU21D;62209;47.568;7.558;2023-04-03T09:29:47;6.49;97.96
73875;HTU21D;62209;47.568;7.558;2023-04-03T09:44:58;6.87;94.32
73875;HTU21D;62209;47.568;7.558;2023-04-03T10:00:06;7.10;84.75
73875;HTU21D;62209;47.568;7.558;2023-04-03T10:15:24;6.53;81.98
73875;HTU21D;62209;47.568;7.558;2023-04-03T10:30:36;6.58;79.24
73875;HTU21D;62209;47.568;7.558;2023-04-03T10:45:51;7.23;77.79
73875;HTU21D;62209;47.568;7.558;2023-04-03T11:01:02;7.43;74.16
73875;HTU21D;62209;47.568;7.558;2023-04-03T11:16:14;8.31;74.17
73875;HTU21D;62209;47.568;7.558;2023-04-03T11:31:29;8.74;73.70
73875;HTU21D;62209;47.568;7.558;2023-04-03T11:46:52;9.48;72.27
73875;HTU21D;62209;47.568;7.558;2023-04-03T12:02:01;9.53;68.02
73875;HTU21D;62209;47.568;7.558;2023-04-03T12:17:36;9.27;69.35
73875;HTU21D;62209;47.568;7.558;2023-04-03T12:32:47;9.22;70.74
73875;HTU21D;62209;47.568;7.558;2023-04-03T12:48:20;9.03;69.78
73875;HTU21D;62209;47.568;7.558;2023-04-03T13:03:30;8.78;69.68
73875;HTU21D;62209;47.568;7.558;2023-04-03T13:18:36;8.89;69.93
73875;HTU21D;62209;47.568;7.558;2023-04-03T13:33:45;8.90;70.31
73875;HTU21D;62209;47.568;7.558;2023-04-03T13:49:01;8.68;70.94
73875;HTU21D;62209;47.568;7.558;2023-04-03T14:04:26;8.87;68.49
73875;HTU21D;62209;47.568;7.558;2023-04-03T14:19:34;8.78;69.10
73875;HTU21D;62209;47.568;7.558;2023-04-03T14:34:41;8.85;69.16
73875;HTU21D;62209;47.568;7.558;2023-04-03T14:49:47;8.71;69.10
73875;HTU21D;62209;47.568;7.558;2023-04-03T15:04:53;8.78;67.04
73875;HTU21D;62209;47.568;7.558;2023-04-03T15:19:59;8.65;67.43
73875;HTU21D;62209;47.568;7.558;2023-04-03T15:35:06;8.39;67.88
73875;HTU21D;62209;47.568;7.558;2023-04-03T15:50:12;8.23;67.27
73875;HTU21D;62209;47.568;7.558;2023-04-03T16:05:18;8.08;67.72
73875;HTU21D;62209;47.568;7.558;2023-04-03T16:20:24;7.98;68.00
73875;HTU21D;62209;47.568;7.558;2023-04-03T16:35:31;7.74;69.13
73875;HTU21D;62209;47.568;7.558;2023-04-03T16:50:36;7.61;66.50
73875;HTU21D;62209;47.568;7.558;2023-04-03T17:05:45;7.46;68.28
73875;HTU21D;62209;47.568;7.558;2023-04-03T17:20:51;7.26;69.23
73875;HTU21D;62209;47.568;7.558;2023-04-03T17:35:57;7.12;69.74
73875;HTU21D;62209;47.568;7.558;2023-04-03T17:51:10;6.97;69.54
73875;HTU21D;62209;47.568;7.558;2023-04-03T18:06:17;6.79;70.02
73875;HTU21D;62209;47.568;7.558;2023-04-03T18:21:24;6.64;71.32
73875;HTU21D;62209;47.568;7.558;2023-04-03T18:36:30;6.39;70.38
73875;HTU21D;62209;47.568;7.558;2023-04-03T18:51:36;6.36;70.75
73875;HTU21D;62209;47.568;7.558;2023-04-03T19:06:43;6.10;70.35
73875;HTU21D;62209;47.568;7.558;2023-04-03T19:37:14;5.89;72.35
73875;HTU21D;62209;47.568;7.558;2023-04-03T19:52:22;5.72;71.93
73875;HTU21D;62209;47.568;7.558;2023-04-03T20:07:28;5.41;73.02
73875;HTU21D;62209;47.568;7.558;2023-04-03T20:22:34;5.16;73.72
73875;HTU21D;62209;47.568;7.558;2023-04-03T20:37:41;4.97;74.19
73875;HTU21D;62209;47.568;7.558;2023-04-03T20:52:47;4.60;75.31
73875;HTU21D;62209;47.568;7.558;2023-04-03T21:23:36;4.22;76.38
73875;HTU21D;62209;47.568;7.558;2023-04-03T21:38:41;3.93;78.72
73875;HTU21D;62209;47.568;7.558;2023-04-03T21:53:49;3.42;82.07
73875;HTU21D;62209;47.568;7.558;2023-04-03T22:08:56;3.18;82.68
73875;HTU21D;62209;47.568;7.558;2023-04-03T22:24:02;2.87;84.90
73875;HTU21D;62209;47.568;7.558;2023-04-03T22:39:08;2.60;86.85
73875;HTU21D;62209;47.568;7.558;2023-04-03T22:54:15;2.32;87.18
73875;HTU21D;62209;47.568;7.558;2023-04-03T23:09:21;2.23;85.50
73875;HTU21D;62209;47.568;7.558;2023-04-03T23:24:27;2.88;77.73
73875;HTU21D;62209;47.568;7.558;2023-04-03T23:39:33;3.29;75.34
73875;HTU21D;62209;47.568;7.558;2023-04-03T23:54:39;2.98;76.42
